Time;durP1;ratioP1;P1;durP2;ratioP2;P2;SDS_P1;SDS_P2;PMS_P1;PMS_P2;Temp;Humidity;BMP_temperature;BMP_pressure;BME280_temperature;BME280_humidity;BME280_pressure;Samples;Min_cycle;Max_cycle;Signal;HPM_P1;HPM_P2
2023/05/30 00:02:20;;;;;;;;;;;;;;;;;;5099482;28;20346;-66
2023/05/30 00:04:45;;;;;;;;;;;;;;;;;;5082124;28;19920;-66
2023/05/30 00:07:11;;;;;;;;;;;;;;;;;;5064716;28;19916;-65
2023/05/30 00:09:36;;;;;;;;;;;;;;;;;;5084923;28;19961;-65
2023/05/30 00:12:02;;;;;;;;;;;;;;;;;;5084778;28;19938;-65
2023/05/30 00:14:27;;;;;;;;;;;;;;;;;;5112999;28;19916;-65
2023/05/30 00:16:52;;;;;;;;;;;;;;;;;;5094359;28;19947;-65
2023/05/30 00:19:19;;;;;;;;;;;;;;;;;;5094147;28;19967;-65
2023/05/30 00:21:46;;;;;;;;;;;;;;;;;;5093031;28;20408;-64
2023/05/30 00:24:11;;;;;;;;;;;;;;;;;;5097518;28;20269;-64
2023/05/30 00:26:36;;;;;;;;;;;;;;;;;;5084437;28;19926;-64
2023/05/30 00:29:02;;;;;;;;;;;;;;;;;;5112034;28;19955;-66
2023/05/30 00:31:29;;;;;;;;;;;;;;;;;;5061655;28;20313;-65
2023/05/30 00:33:54;;;;;;;;;;;;;;;;;;5073414;28;19922;-65
2023/05/30 00:36:19;;;;;;;;;;;;;;;;;;5083279;28;20022;-64
2023/05/30 00:38:45;;;;;;;;;;;;;;;;;;5099858;28;20419;-66
2023/05/30 00:41:10;;;;;;;;;;;;;;;;;;5088456;28;19927;-66
2023/05/30 00:43:37;;;;;;;;;;;;;;;;;;5093757;28;19916;-66
2023/05/30 00:46:04;;;;;;;;;;;;;;;;;;5109347;28;19928;-65
2023/05/30 00:48:29;;;;;;;;;;;;;;;;;;5110066;28;19923;-65
2023/05/30 00:50:54;;;;;;;;;;;;;;;;;;5082118;28;19927;-65
2023/05/30 00:53:20;;;;;;;;;;;;;;;;;;5092975;28;19963;-66
2023/05/30 00:55:45;;;;;;;;;;;;;;;;;;5091697;28;19920;-65
2023/05/30 00:58:11;;;;;;;;;;;;;;;;;;5107120;28;19942;-65
2023/05/30 01:00:39;;;;;;;;;;;;;;;;;;5067145;28;19920;-65
2023/05/30 01:03:05;;;;;;;;;;;;;;;;;;5074634;28;19916;-64
2023/05/30 01:05:31;;;;;;;;;;;;;;;;;;5100776;28;19927;-65
2023/05/30 01:07:56;;;;;;;;;;;;;;;;;;5100267;28;19916;-65
2023/05/30 01:10:21;;;;;;;;;;;;;;;;;;5091365;28;19939;-65
2023/05/30 01:12:47;;;;;;;;;;;;;;;;;;5090085;28;19923;-64
2023/05/30 01:15:12;;;;;;;;;;;;;;;;;;5082555;28;19980;-65
2023/05/30 01:17:38;;;;;;;;;;;;;;;;;;5096840;28;20457;-64
2023/05/30 01:20:07;;;;;;;;;;;;;;;;;;5083573;28;19920;-66
2023/05/30 01:22:32;;;;;;;;;;;;;;;;;;5097295;28;19986;-63
2023/05/30 01:24:58;;;;;;;;;;;;;;;;;;5103791;28;19942;-65
2023/05/30 01:27:23;;;;;;;;;;;;;;;;;;5100901;28;20006;-65
2023/05/30 01:29:48;;;;;;;;;;;;;;;;;;5093867;28;19920;-65
2023/05/30 01:32:14;;;;;;;;;;;;;;;;;;5076973;28;20411;-65
2023/05/30 01:34:39;;;;;;;;;;;;;;;;;;5077391;28;19923;-64
2023/05/30 01:37:05;;;;;;;;;;;;;;;;;;5077369;28;19920;-65
2023/05/30 01:39:30;;;;;;;;;;;;;;;;;;5068605;28;19969;-64
2023/05/30 01:41:56;;;;;;;;;;;;;;;;;;5068780;28;19935;-64
2023/05/30 01:44:22;;;;;;;;;;;;;;;;;;5094071;28;20014;-65
2023/05/30 01:46:47;;;;;;;;;;;;;;;;;;5094929;28;20407;-65
2023/05/30 01:49:12;;;;;;;;;;;;;;;;;;5115787;28;19938;-65
2023/05/30 01:51:38;;;;;;;;;;;;;;;;;;5079947;28;19927;-65
2023/05/30 01:54:03;;;;;;;;;;;;;;;;;;5076061;28;20381;-64
2023/05/30 01:56:28;;;;;;;;;;;;;;;;;;5103829;28;19920;-65
2023/05/30 01:58:54;;;;;;;;;;;;;;;;;;5093689;28;20004;-64
2023/05/30 02:01:19;;;;;;;;;;;;;;;;;;5078779;28;20571;-64
2023/05/30 02:03:45;;;;;;;;;;;;;;;;;;5087462;28;19915;-65
2023/05/30 02:06:11;;;;;;;;;;;;;;;;;;5105137;28;19942;-65
2023/05/30 02:08:37;;;;;;;;;;;;;;;;;;5058953;28;19923;-65
2023/05/30 02:11:03;;;;;;;;;;;;;;;;;;5072629;28;20340;-65
2023/05/30 02:13:28;;;;;;;;;;;;;;;;;;5086444;28;19955;-65
2023/05/30 02:15:53;;;;;;;;;;;;;;;;;;5042468;28;19942;-64
2023/05/30 02:18:19;;;;;;;;;;;;;;;;;;5107767;28;19916;-64
2023/05/30 02:20:44;;;;;;;;;;;;;;;;;;5106441;28;20007;-66
2023/05/30 02:23:10;;;;;;;;;;;;;;;;;;5095421;28;20029;-64
2023/05/30 02:25:35;;;;;;;;;;;;;;;;;;5058850;28;19928;-65
2023/05/30 02:28:01;;;;;;;;;;;;;;;;;;5066279;28;20305;-65
2023/05/30 02:30:26;;;;;;;;;;;;;;;;;;5053704;28;20022;-65
2023/05/30 02:32:53;;;;;;;;;;;;;;;;;;5075430;28;19955;-64
2023/05/30 02:35:18;;;;;;;;;;;;;;;;;;5094735;28;19982;-65
2023/05/30 02:37:43;;;;;;;;;;;;;;;;;;5062617;28;19915;-65
2023/05/30 02:40:12;;;;;;;;;;;;;;;;;;5114093;28;19942;-64
2023/05/30 02:42:37;;;;;;;;;;;;;;;;;;5096091;28;19915;-65
2023/05/30 02:45:03;;;;;;;;;;;;;;;;;;5095971;28;19964;-64
2023/05/30 02:47:29;;;;;;;;;;;;;;;;;;5096394;28;19916;-65
2023/05/30 02:49:54;;;;;;;;;;;;;;;;;;5095196;28;20392;-65
2023/05/30 02:52:21;;;;;;;;;;;;;;;;;;5105234;28;19961;-66
2023/05/30 02:54:53;;;;;;;;;;;;;;;;;;5069510;28;19925;-65
2023/05/30 02:57:36;;;;;;;;;;;;;;;;;;5095682;28;20342;-65
2023/05/30 03:00:13;;;;;;;;;;;;;;;;;;5075355;28;19924;-66
2023/05/30 03:02:42;;;;;;;;;;;;;;;;;;5075258;28;20385;-65
2023/05/30 03:05:10;;;;;;;;;;;;;;;;;;5074533;28;19916;-66
2023/05/30 03:07:36;;;;;;;;;;;;;;;;;;5065589;28;19939;-65
2023/05/30 03:10:01;;;;;;;;;;;;;;;;;;5083905;28;20381;-65
2023/05/30 03:12:29;;;;;;;;;;;;;;;;;;5094408;28;19919;-66
2023/05/30 03:14:54;;;;;;;;;;;;;;;;;;5078498;28;19919;-66
2023/05/30 03:17:20;;;;;;;;;;;;;;;;;;5077561;28;19919;-66
2023/05/30 03:19:45;;;;;;;;;;;;;;;;;;5078524;28;19926;-65
2023/05/30 03:22:11;;;;;;;;;;;;;;;;;;5076618;28;19916;-66
2023/05/30 03:24:36;;;;;;;;;;;;;;;;;;5085607;28;19922;-66
2023/05/30 03:27:02;;;;;;;;;;;;;;;;;;5079767;28;19994;-66
2023/05/30 03:29:27;;;;;;;;;;;;;;;;;;5074746;28;20339;-66
2023/05/30 03:31:53;;;;;;;;;;;;;;;;;;5074749;28;19935;-66
2023/05/30 03:34:18;;;;;;;;;;;;;;;;;;5074995;28;19923;-65
2023/05/30 03:36:45;;;;;;;;;;;;;;;;;;5074569;28;20014;-66
2023/05/30 03:39:10;;;;;;;;;;;;;;;;;;5095051;28;19926;-66
2023/05/30 03:41:36;;;;;;;;;;;;;;;;;;5066646;28;19928;-66
2023/05/30 03:44:01;;;;;;;;;;;;;;;;;;5080590;28;19916;-67
2023/05/30 03:46:26;;;;;;;;;;;;;;;;;;5059874;28;19946;-66
2023/05/30 03:48:52;;;;;;;;;;;;;;;;;;5074607;28;19919;-66
2023/05/30 03:51:17;;;;;;;;;;;;;;;;;;5069183;28;19936;-64
2023/05/30 03:53:42;;;;;;;;;;;;;;;;;;5072150;28;20338;-65
2023/05/30 03:56:07;;;;;;;;;;;;;;;;;;5070909;28;19920;-65
2023/05/30 03:58:33;;;;;;;;;;;;;;;;;;5070691;28;19912;-65
2023/05/30 04:01:00;;;;;;;;;;;;;;;;;;5070785;28;19926;-65
2023/05/30 04:03:25;;;;;;;;;;;;;;;;;;5071555;28;19916;-66
2023/05/30 04:05:51;;;;;;;;;;;;;;;;;;5084761;28;19973;-66
2023/05/30 04:08:16;;;;;;;;;;;;;;;;;;5079625;28;20011;-66
2023/05/30 04:10:41;;;;;;;;;;;;;;;;;;5047515;28;19934;-66
2023/05/30 04:13:07;;;;;;;;;;;;;;;;;;5077429;28;19916;-65
2023/05/30 04:15:32;;;;;;;;;;;;;;;;;;5067639;28;19924;-65
2023/05/30 04:18:00;;;;;;;;;;;;;;;;;;5079645;28;19939;-66
2023/05/30 04:20:25;;;;;;;;;;;;;;;;;;5063460;28;19920;-65
2023/05/30 04:22:50;;;;;;;;;;;;;;;;;;5080203;28;19961;-66
2023/05/30 04:25:17;;;;;;;;;;;;;;;;;;5079111;28;19920;-66
2023/05/30 04:27:43;;;;;;;;;;;;;;;;;;5078531;28;20015;-66
2023/05/30 04:30:08;;;;;;;;;;;;;;;;;;5075316;28;19927;-66
2023/05/30 04:32:34;;;;;;;;;;;;;;;;;;5090375;28;19916;-65
2023/05/30 04:35:01;;;;;;;;;;;;;;;;;;5073463;28;19969;-67
2023/05/30 04:37:27;;;;;;;;;;;;;;;;;;5090033;28;20299;-63
2023/05/30 04:39:56;;;;;;;;;;;;;;;;;;5089157;28;20030;-67
2023/05/30 04:42:23;;;;;;;;;;;;;;;;;;5089852;28;19924;-65
2023/05/30 04:44:49;;;;;;;;;;;;;;;;;;5064071;28;19920;-66
2023/05/30 04:47:17;;;;;;;;;;;;;;;;;;5063542;28;19939;-65
2023/05/30 04:49:42;;;;;;;;;;;;;;;;;;5070230;28;20289;-65
2023/05/30 04:52:08;;;;;;;;;;;;;;;;;;5073412;28;19935;-63
2023/05/30 04:54:33;;;;;;;;;;;;;;;;;;5073324;28;19916;-65
2023/05/30 04:56:58;;;;;;;;;;;;;;;;;;5073345;28;19981;-65
2023/05/30 04:59:24;;;;;;;;;;;;;;;;;;5085821;28;19977;-66
2023/05/30 05:01:50;;;;;;;;;;;;;;;;;;5080964;28;19926;-65
2023/05/30 05:04:15;;;;;;;;;;;;;;;;;;5078638;28;20007;-66
2023/05/30 05:06:41;;;;;;;;;;;;;;;;;;5070705;28;20380;-65
2023/05/30 05:09:07;;;;;;;;;;;;;;;;;;5034735;28;19913;-64
2023/05/30 05:11:32;;;;;;;;;;;;;;;;;;5052341;28;19933;-65
2023/05/30 05:13:58;;;;;;;;;;;;;;;;;;5070424;28;20015;-66
2023/05/30 05:16:23;;;;;;;;;;;;;;;;;;5080937;28;19920;-67
2023/05/30 05:18:48;;;;;;;;;;;;;;;;;;5080594;28;20010;-64
2023/05/30 05:21:14;;;;;;;;;;;;;;;;;;5069373;28;19920;-67
2023/05/30 05:23:39;;;;;;;;;;;;;;;;;;5086260;28;19927;-64
2023/05/30 05:26:05;;;;;;;;;;;;;;;;;;5069314;28;20566;-66
2023/05/30 05:28:30;;;;;;;;;;;;;;;;;;5070239;28;20344;-66
2023/05/30 05:30:56;;;;;;;;;;;;;;;;;;5050351;28;20017;-64
2023/05/30 05:33:21;;;;;;;;;;;;;;;;;;5059596;28;20297;-67
2023/05/30 05:35:46;;;;;;;;;;;;;;;;;;5076935;28;19977;-65
2023/05/30 05:38:11;;;;;;;;;;;;;;;;;;5078707;28;19924;-67
2023/05/30 05:40:37;;;;;;;;;;;;;;;;;;5076909;28;20015;-66
2023/05/30 05:43:02;;;;;;;;;;;;;;;;;;5070557;28;19924;-65
2023/05/30 05:45:27;;;;;;;;;;;;;;;;;;5077329;28;19920;-65
2023/05/30 05:47:53;;;;;;;;;;;;;;;;;;5078359;28;19976;-66
2023/05/30 05:50:18;;;;;;;;;;;;;;;;;;5074508;28;19977;-67
2023/05/30 05:52:43;;;;;;;;;;;;;;;;;;5078558;28;19916;-66
2023/05/30 05:55:08;;;;;;;;;;;;;;;;;;5086591;28;20309;-66
2023/05/30 05:57:34;;;;;;;;;;;;;;;;;;5078377;28;20377;-65
2023/05/30 05:59:59;;;;;;;;;;;;;;;;;;5084871;28;19920;-66
2023/05/30 06:02:25;;;;;;;;;;;;;;;;;;5081962;28;19916;-66
2023/05/30 06:04:51;;;;;;;;;;;;;;;;;;5081838;28;19927;-66
2023/05/30 06:07:16;;;;;;;;;;;;;;;;;;5062628;28;19923;-66
2023/05/30 06:09:41;;;;;;;;;;;;;;;;;;5063136;28;19924;-65
2023/05/30 06:12:07;;;;;;;;;;;;;;;;;;5087475;28;19935;-66
2023/05/30 06:14:32;;;;;;;;;;;;;;;;;;5080852;28;19920;-65
2023/05/30 06:16:57;;;;;;;;;;;;;;;;;;5078725;28;19924;-64
2023/05/30 06:19:23;;;;;;;;;;;;;;;;;;5079311;28;20010;-65
2023/05/30 06:21:48;;;;;;;;;;;;;;;;;;5079850;28;20023;-66
2023/05/30 06:24:13;;;;;;;;;;;;;;;;;;5078077;28;20007;-66
2023/05/30 06:26:38;;;;;;;;;;;;;;;;;;5078894;28;19920;-66
2023/05/30 06:29:04;;;;;;;;;;;;;;;;;;5081629;28;19917;-66
2023/05/30 06:31:29;;;;;;;;;;;;;;;;;;5054175;28;19950;-66
2023/05/30 06:33:54;;;;;;;;;;;;;;;;;;5072501;28;20029;-65
2023/05/30 06:36:19;;;;;;;;;;;;;;;;;;5071911;28;20629;-66
2023/05/30 06:38:45;;;;;;;;;;;;;;;;;;5060432;28;19939;-66
2023/05/30 06:41:10;;;;;;;;;;;;;;;;;;5101472;28;19934;-66
2023/05/30 06:43:35;;;;;;;;;;;;;;;;;;5110004;28;19915;-66
2023/05/30 06:46:01;;;;;;;;;;;;;;;;;;5101655;28;19966;-65
2023/05/30 06:48:26;;;;;;;;;;;;;;;;;;5101872;27;20384;-66
2023/05/30 06:50:51;;;;;;;;;;;;;;;;;;5101193;28;20018;-65
2023/05/30 06:53:16;;;;;;;;;;;;;;;;;;5079768;28;19943;-67
2023/05/30 06:55:42;;;;;;;;;;;;;;;;;;5072986;28;19973;-64
2023/05/30 06:58:07;;;;;;;;;;;;;;;;;;5100865;28;20083;-65
2023/05/30 07:00:32;;;;;;;;;;;;;;;;;;5083570;28;19977;-64
2023/05/30 07:03:01;;;;;;;;;;;;;;;;;;5075093;28;19963;-65
2023/05/30 07:05:26;;;;;;;;;;;;;;;;;;5058492;28;19967;-65
2023/05/30 07:07:51;;;;;;;;;;;;;;;;;;5058505;28;19916;-66
2023/05/30 07:10:17;;;;;;;;;;;;;;;;;;5056488;28;20014;-66
2023/05/30 07:12:42;;;;;;;;;;;;;;;;;;5072769;28;20307;-68
2023/05/30 07:15:07;;;;;;;;;;;;;;;;;;5058332;28;19920;-67
2023/05/30 07:17:32;;;;;;;;;;;;;;;;;;5083491;28;19920;-67
2023/05/30 07:19:58;;;;;;;;;;;;;;;;;;5104451;28;20079;-68
2023/05/30 07:22:23;;;;;;;;;;;;;;;;;;5099833;28;19916;-68
2023/05/30 07:24:51;;;;;;;;;;;;;;;;;;5090390;28;20408;-68
2023/05/30 07:27:16;;;;;;;;;;;;;;;;;;5063800;28;19920;-67
2023/05/30 07:29:41;;;;;;;;;;;;;;;;;;5105358;28;20018;-67
2023/05/30 07:32:07;;;;;;;;;;;;;;;;;;5112555;28;19988;-68
2023/05/30 07:34:32;;;;;;;;;;;;;;;;;;5093637;28;19920;-66
2023/05/30 07:36:57;;;;;;;;;;;;;;;;;;5101361;28;19926;-66
2023/05/30 07:39:23;;;;;;;;;;;;;;;;;;5088706;28;19942;-67
2023/05/30 07:41:48;;;;;;;;;;;;;;;;;;5071866;28;19935;-68
2023/05/30 07:44:14;;;;;;;;;;;;;;;;;;5098818;28;19916;-67
2023/05/30 07:46:39;;;;;;;;;;;;;;;;;;5098768;28;19920;-67
2023/05/30 07:49:05;;;;;;;;;;;;;;;;;;5104454;28;20292;-65
2023/05/30 07:51:32;;;;;;;;;;;;;;;;;;5071150;28;19928;-68
2023/05/30 07:53:58;;;;;;;;;;;;;;;;;;5090176;28;19916;-67
2023/05/30 07:56:23;;;;;;;;;;;;;;;;;;5090043;28;19926;-68
2023/05/30 07:58:49;;;;;;;;;;;;;;;;;;5092420;28;19923;-65
2023/05/30 08:01:14;;;;;;;;;;;;;;;;;;5100551;28;20425;-64
2023/05/30 08:03:40;;;;;;;;;;;;;;;;;;5073877;28;19920;-66
2023/05/30 08:06:07;;;;;;;;;;;;;;;;;;5074357;28;20042;-63
2023/05/30 08:08:32;;;;;;;;;;;;;;;;;;5106035;28;19970;-66
2023/05/30 08:10:57;;;;;;;;;;;;;;;;;;5067030;28;20401;-64
2023/05/30 08:13:23;;;;;;;;;;;;;;;;;;5091462;28;20349;-64
2023/05/30 08:15:48;;;;;;;;;;;;;;;;;;5091881;28;20027;-65
2023/05/30 08:18:14;;;;;;;;;;;;;;;;;;5074175;28;19916;-64
2023/05/30 08:20:39;;;;;;;;;;;;;;;;;;5091912;28;20092;-65
2023/05/30 08:23:04;;;;;;;;;;;;;;;;;;5056800;28;19916;-65
2023/05/30 08:25:35;;;;;;;;;;;;;;;;;;5073700;28;19966;-65
2023/05/30 08:28:00;;;;;;;;;;;;;;;;;;5091882;28;19923;-65
2023/05/30 08:30:25;;;;;;;;;;;;;;;;;;5091854;28;19972;-63
2023/05/30 08:32:51;;;;;;;;;;;;;;;;;;5091333;28;20365;-64
2023/05/30 08:35:16;;;;;;;;;;;;;;;;;;5073306;28;19920;-63
2023/05/30 08:37:41;;;;;;;;;;;;;;;;;;5090715;28;19916;-65
2023/05/30 08:40:06;;;;;;;;;;;;;;;;;;5055960;28;19988;-65
2023/05/30 08:42:32;;;;;;;;;;;;;;;;;;5069579;28;19932;-64
2023/05/30 08:44:57;;;;;;;;;;;;;;;;;;5054394;28;20044;-65
2023/05/30 08:47:22;;;;;;;;;;;;;;;;;;5090862;28;19926;-65
2023/05/30 08:49:47;;;;;;;;;;;;;;;;;;5090312;28;20297;-64
2023/05/30 08:52:16;;;;;;;;;;;;;;;;;;5089532;28;20027;-65
2023/05/30 08:54:41;;;;;;;;;;;;;;;;;;5090501;28;20377;-66
2023/05/30 08:57:06;;;;;;;;;;;;;;;;;;5090489;28;19926;-65
2023/05/30 08:59:32;;;;;;;;;;;;;;;;;;5090532;28;20270;-65
2023/05/30 09:01:57;;;;;;;;;;;;;;;;;;5089976;28;20352;-66
2023/05/30 09:04:23;;;;;;;;;;;;;;;;;;5088936;28;19938;-64
2023/05/30 09:06:48;;;;;;;;;;;;;;;;;;5090459;28;20331;-65
2023/05/30 09:09:14;;;;;;;;;;;;;;;;;;5091419;28;20034;-67
2023/05/30 09:11:39;;;;;;;;;;;;;;;;;;5089361;28;19928;-64
2023/05/30 09:14:04;;;;;;;;;;;;;;;;;;5091591;28;19916;-65
2023/05/30 09:16:30;;;;;;;;;;;;;;;;;;5091248;28;20332;-64
2023/05/30 09:18:55;;;;;;;;;;;;;;;;;;5073058;28;19962;-65
2023/05/30 09:21:20;;;;;;;;;;;;;;;;;;5090434;28;20361;-65
2023/05/30 09:23:46;;;;;;;;;;;;;;;;;;5090777;28;19938;-66
2023/05/30 09:26:14;;;;;;;;;;;;;;;;;;5090827;28;19920;-66
2023/05/30 09:28:40;;;;;;;;;;;;;;;;;;5091497;28;19923;-66
2023/05/30 09:31:05;;;;;;;;;;;;;;;;;;5089052;28;20023;-66
2023/05/30 09:33:30;;;;;;;;;;;;;;;;;;5080136;28;19920;-65
2023/05/30 09:35:55;;;;;;;;;;;;;;;;;;5081905;28;20341;-66
2023/05/30 09:38:22;;;;;;;;;;;;;;;;;;5074799;28;19916;-65
2023/05/30 09:40:47;;;;;;;;;;;;;;;;;;5087609;28;19935;-65
2023/05/30 09:43:12;;;;;;;;;;;;;;;;;;5093197;28;20522;-67
2023/05/30 09:45:37;;;;;;;;;;;;;;;;;;5094384;28;20005;-64
2023/05/30 09:48:03;;;;;;;;;;;;;;;;;;5095101;28;19973;-64
2023/05/30 09:50:28;;;;;;;;;;;;;;;;;;5092349;28;19935;-65
2023/05/30 09:52:56;;;;;;;;;;;;;;;;;;5079758;28;20008;-67
2023/05/30 09:55:21;;;;;;;;;;;;;;;;;;5073656;28;20390;-67
2023/05/30 09:57:47;;;;;;;;;;;;;;;;;;5073107;28;19924;-66
2023/05/30 10:00:13;;;;;;;;;;;;;;;;;;5055929;28;19921;-67
2023/05/30 10:02:39;;;;;;;;;;;;;;;;;;5073736;28;19963;-65
2023/05/30 10:05:05;;;;;;;;;;;;;;;;;;5071960;28;19920;-67
2023/05/30 10:07:30;;;;;;;;;;;;;;;;;;5075628;28;20511;-64
2023/05/30 10:09:55;;;;;;;;;;;;;;;;;;5080664;28;19930;-66
2023/05/30 10:12:20;;;;;;;;;;;;;;;;;;5048151;28;20427;-65
2023/05/30 10:14:46;;;;;;;;;;;;;;;;;;5064002;28;19920;-66
2023/05/30 10:17:11;;;;;;;;;;;;;;;;;;5062837;28;19916;-66
2023/05/30 10:19:36;;;;;;;;;;;;;;;;;;5085322;28;19999;-65
2023/05/30 10:22:01;;;;;;;;;;;;;;;;;;5093777;28;19920;-66
2023/05/30 10:24:27;;;;;;;;;;;;;;;;;;5070167;28;19916;-66
2023/05/30 10:26:52;;;;;;;;;;;;;;;;;;5081378;28;19928;-66
2023/05/30 10:29:17;;;;;;;;;;;;;;;;;;5077386;28;19916;-67
2023/05/30 10:31:43;;;;;;;;;;;;;;;;;;5079124;28;19983;-65
2023/05/30 10:34:08;;;;;;;;;;;;;;;;;;5081726;28;19920;-66
2023/05/30 10:36:34;;;;;;;;;;;;;;;;;;5078495;28;20297;-67
2023/05/30 10:38:59;;;;;;;;;;;;;;;;;;5077221;28;19938;-66
2023/05/30 10:41:25;;;;;;;;;;;;;;;;;;5072689;28;20451;-66
2023/05/30 10:43:51;;;;;;;;;;;;;;;;;;5078536;28;19924;-65
2023/05/30 10:46:16;;;;;;;;;;;;;;;;;;5085642;28;19920;-65
2023/05/30 10:48:44;;;;;;;;;;;;;;;;;;5091000;28;19923;-66
2023/05/30 10:51:10;;;;;;;;;;;;;;;;;;5090555;28;19977;-67
2023/05/30 10:53:36;;;;;;;;;;;;;;;;;;5091422;28;19920;-66
2023/05/30 10:56:01;;;;;;;;;;;;;;;;;;5075778;28;20287;-67
2023/05/30 10:58:26;;;;;;;;;;;;;;;;;;5071493;28;19916;-67
2023/05/30 11:00:52;;;;;;;;;;;;;;;;;;5069795;28;19920;-67
2023/05/30 11:03:17;;;;;;;;;;;;;;;;;;5070775;28;19917;-66
2023/05/30 11:05:42;;;;;;;;;;;;;;;;;;5071885;28;19927;-67
2023/05/30 11:08:08;;;;;;;;;;;;;;;;;;5040309;28;19985;-66
2023/05/30 11:10:33;;;;;;;;;;;;;;;;;;5076081;28;19932;-66
2023/05/30 11:12:58;;;;;;;;;;;;;;;;;;5056923;28;20333;-66
2023/05/30 11:15:23;;;;;;;;;;;;;;;;;;5079274;28;19935;-67
2023/05/30 11:17:49;;;;;;;;;;;;;;;;;;5042535;28;20251;-69
2023/05/30 11:20:14;;;;;;;;;;;;;;;;;;5080115;28;19921;-65
2023/05/30 11:22:40;;;;;;;;;;;;;;;;;;5083203;28;19920;-65
2023/05/30 11:25:05;;;;;;;;;;;;;;;;;;5080215;28;20401;-67
2023/05/30 11:27:30;;;;;;;;;;;;;;;;;;5080087;28;20333;-65
2023/05/30 11:29:57;;;;;;;;;;;;;;;;;;5082565;28;19920;-65
2023/05/30 11:32:23;;;;;;;;;;;;;;;;;;5081553;28;19924;-66
2023/05/30 11:34:48;;;;;;;;;;;;;;;;;;5079586;28;19997;-67
2023/05/30 11:37:14;;;;;;;;;;;;;;;;;;5077753;28;19916;-61
2023/05/30 11:39:40;;;;;;;;;;;;;;;;;;5044513;28;19921;-64
2023/05/30 11:42:05;;;;;;;;;;;;;;;;;;5089173;28;19928;-65
2023/05/30 11:44:31;;;;;;;;;;;;;;;;;;5088897;28;19969;-62
2023/05/30 11:46:56;;;;;;;;;;;;;;;;;;5084103;28;19960;-64
2023/05/30 11:49:21;;;;;;;;;;;;;;;;;;5084530;28;19923;-66
2023/05/30 11:51:47;;;;;;;;;;;;;;;;;;5090858;28;19978;-65
2023/05/30 11:54:12;;;;;;;;;;;;;;;;;;5069831;28;20510;-66
2023/05/30 11:56:37;;;;;;;;;;;;;;;;;;5069877;28;19921;-66
2023/05/30 11:59:03;;;;;;;;;;;;;;;;;;5068664;28;19920;-65
2023/05/30 12:01:28;;;;;;;;;;;;;;;;;;5067733;28;20305;-66
2023/05/30 12:03:53;;;;;;;;;;;;;;;;;;5071070;28;19927;-68
2023/05/30 12:06:19;;;;;;;;;;;;;;;;;;5060899;28;19921;-67
2023/05/30 12:08:45;;;;;;;;;;;;;;;;;;5079895;28;19967;-67
2023/05/30 12:11:11;;;;;;;;;;;;;;;;;;5070501;28;19936;-67
2023/05/30 12:13:36;;;;;;;;;;;;;;;;;;5069998;28;19918;-66
2023/05/30 12:16:02;;;;;;;;;;;;;;;;;;5069541;28;20429;-67
2023/05/30 12:18:27;;;;;;;;;;;;;;;;;;5073879;28;19916;-65
2023/05/30 12:20:52;;;;;;;;;;;;;;;;;;5084463;28;19924;-65
2023/05/30 12:23:18;;;;;;;;;;;;;;;;;;5088215;28;19916;-65
2023/05/30 12:25:43;;;;;;;;;;;;;;;;;;5068224;28;19920;-65
2023/05/30 12:28:09;;;;;;;;;;;;;;;;;;5069009;28;20289;-66
2023/05/30 12:30:37;;;;;;;;;;;;;;;;;;5069075;28;20040;-64
2023/05/30 12:33:02;;;;;;;;;;;;;;;;;;5069872;28;19917;-64
2023/05/30 12:35:28;;;;;;;;;;;;;;;;;;5081219;28;20362;-65
2023/05/30 12:37:53;;;;;;;;;;;;;;;;;;5078757;28;20360;-65
2023/05/30 12:40:18;;;;;;;;;;;;;;;;;;5079809;28;19927;-65
2023/05/30 12:42:45;;;;;;;;;;;;;;;;;;5093970;28;20098;-65
2023/05/30 12:45:11;;;;;;;;;;;;;;;;;;5070510;28;19919;-64
2023/05/30 12:47:36;;;;;;;;;;;;;;;;;;5098185;28;19961;-65
2023/05/30 12:50:02;;;;;;;;;;;;;;;;;;5102371;28;19919;-64
2023/05/30 12:52:29;;;;;;;;;;;;;;;;;;5099951;28;20423;-64
2023/05/30 12:54:54;;;;;;;;;;;;;;;;;;5111150;28;19920;-65
2023/05/30 12:57:19;;;;;;;;;;;;;;;;;;5105573;28;20385;-63
2023/05/30 12:59:45;;;;;;;;;;;;;;;;;;5076436;28;19942;-67
2023/05/30 13:02:10;;;;;;;;;;;;;;;;;;5101624;28;19916;-66
2023/05/30 13:04:36;;;;;;;;;;;;;;;;;;5091605;28;19947;-65
2023/05/30 13:07:02;;;;;;;;;;;;;;;;;;5101203;28;20011;-64
2023/05/30 13:09:28;;;;;;;;;;;;;;;;;;5111814;28;20315;-64
2023/05/30 13:11:53;;;;;;;;;;;;;;;;;;5060724;28;19932;-65
2023/05/30 13:14:19;;;;;;;;;;;;;;;;;;5104151;28;19923;-65
2023/05/30 13:16:44;;;;;;;;;;;;;;;;;;5104450;28;19920;-65
2023/05/30 13:19:10;;;;;;;;;;;;;;;;;;5114650;28;19916;-66
2023/05/30 13:21:35;;;;;;;;;;;;;;;;;;5080165;28;20301;-65
2023/05/30 13:24:01;;;;;;;;;;;;;;;;;;5080280;28;19916;-66
2023/05/30 13:26:26;;;;;;;;;;;;;;;;;;5089128;28;19916;-66
2023/05/30 13:28:51;;;;;;;;;;;;;;;;;;5082830;28;20031;-66
2023/05/30 13:31:17;;;;;;;;;;;;;;;;;;5070768;28;19959;-64
2023/05/30 13:33:42;;;;;;;;;;;;;;;;;;5095177;28;19916;-65
2023/05/30 13:36:07;;;;;;;;;;;;;;;;;;5093791;28;19922;-65
2023/05/30 13:38:33;;;;;;;;;;;;;;;;;;5075073;28;19920;-66
2023/05/30 13:40:58;;;;;;;;;;;;;;;;;;5078327;28;19932;-65
2023/05/30 13:43:23;;;;;;;;;;;;;;;;;;5074485;28;19978;-64
2023/05/30 13:45:49;;;;;;;;;;;;;;;;;;5079852;28;19921;-66
2023/05/30 13:48:21;;;;;;;;;;;;;;;;;;5081920;28;19952;-67
2023/05/30 13:50:47;;;;;;;;;;;;;;;;;;5082335;28;19932;-65
2023/05/30 13:53:12;;;;;;;;;;;;;;;;;;5081249;28;19923;-63
2023/05/30 13:55:37;;;;;;;;;;;;;;;;;;5082798;28;20031;-65
2023/05/30 13:58:02;;;;;;;;;;;;;;;;;;5066237;28;19920;-64
2023/05/30 14:00:28;;;;;;;;;;;;;;;;;;5069400;28;19936;-64
2023/05/30 14:02:53;;;;;;;;;;;;;;;;;;5087162;28;19941;-66
2023/05/30 14:05:18;;;;;;;;;;;;;;;;;;5091010;28;19920;-65
2023/05/30 14:07:44;;;;;;;;;;;;;;;;;;5081387;28;19916;-63
2023/05/30 14:10:09;;;;;;;;;;;;;;;;;;5085833;28;20346;-65
2023/05/30 14:12:35;;;;;;;;;;;;;;;;;;5092605;28;19959;-62
2023/05/30 14:15:01;;;;;;;;;;;;;;;;;;5091611;28;20404;-64
2023/05/30 14:17:26;;;;;;;;;;;;;;;;;;5055698;28;19916;-62
2023/05/30 14:19:52;;;;;;;;;;;;;;;;;;5072925;28;19981;-62
2023/05/30 14:22:17;;;;;;;;;;;;;;;;;;5071114;28;19952;-62
2023/05/30 14:24:42;;;;;;;;;;;;;;;;;;5078391;28;19916;-62
2023/05/30 14:27:08;;;;;;;;;;;;;;;;;;5090530;28;19927;-63
2023/05/30 14:29:33;;;;;;;;;;;;;;;;;;5092126;28;19920;-62
2023/05/30 14:31:59;;;;;;;;;;;;;;;;;;5089339;28;20039;-61
2023/05/30 14:34:24;;;;;;;;;;;;;;;;;;5093193;28;20383;-62
2023/05/30 14:36:50;;;;;;;;;;;;;;;;;;5098960;28;19920;-62
2023/05/30 14:39:15;;;;;;;;;;;;;;;;;;5091825;28;20019;-62
2023/05/30 14:41:40;;;;;;;;;;;;;;;;;;5096793;28;19928;-63
2023/05/30 14:44:06;;;;;;;;;;;;;;;;;;5113654;28;19919;-63
2023/05/30 14:46:32;;;;;;;;;;;;;;;;;;5094608;28;20293;-63
2023/05/30 14:48:57;;;;;;;;;;;;;;;;;;5094518;28;19926;-61
2023/05/30 14:51:23;;;;;;;;;;;;;;;;;;5113026;28;20538;-61
2023/05/30 14:53:50;;;;;;;;;;;;;;;;;;5093947;28;19968;-62
2023/05/30 14:56:15;;;;;;;;;;;;;;;;;;5112515;28;19919;-62
2023/05/30 14:58:40;;;;;;;;;;;;;;;;;;5114088;28;19926;-62
2023/05/30 15:01:05;;;;;;;;;;;;;;;;;;5061932;28;19925;-63
2023/05/30 15:03:31;;;;;;;;;;;;;;;;;;5095762;28;19916;-62
2023/05/30 15:05:56;;;;;;;;;;;;;;;;;;5113716;27;20007;-65
2023/05/30 15:08:21;;;;;;;;;;;;;;;;;;5113861;28;19915;-62
2023/05/30 15:10:47;;;;;;;;;;;;;;;;;;5095114;28;19934;-62
2023/05/30 15:13:12;;;;;;;;;;;;;;;;;;5114116;28;20006;-63
2023/05/30 15:15:38;;;;;;;;;;;;;;;;;;5096439;28;19927;-62
2023/05/30 15:18:03;;;;;;;;;;;;;;;;;;5124973;27;19954;-62
2023/05/30 15:20:28;;;;;;;;;;;;;;;;;;5113642;28;19965;-62
2023/05/30 15:22:54;;;;;;;;;;;;;;;;;;5121788;27;19915;-63
2023/05/30 15:25:19;;;;;;;;;;;;;;;;;;5107380;28;20022;-62
2023/05/30 15:27:44;;;;;;;;;;;;;;;;;;5093031;28;19960;-61
2023/05/30 15:30:10;;;;;;;;;;;;;;;;;;5092792;28;19981;-62
2023/05/30 15:32:35;;;;;;;;;;;;;;;;;;5091924;28;20057;-62
2023/05/30 15:35:00;;;;;;;;;;;;;;;;;;5073874;28;19926;-65
2023/05/30 15:37:26;;;;;;;;;;;;;;;;;;5092717;28;19923;-65
2023/05/30 15:39:54;;;;;;;;;;;;;;;;;;5092134;28;20127;-64
2023/05/30 15:42:20;;;;;;;;;;;;;;;;;;5108207;28;20288;-63
2023/05/30 15:44:47;;;;;;;;;;;;;;;;;;5077510;28;19920;-64
2023/05/30 15:47:12;;;;;;;;;;;;;;;;;;5112921;28;19969;-62
2023/05/30 15:49:38;;;;;;;;;;;;;;;;;;5113357;28;20288;-61
2023/05/30 15:52:05;;;;;;;;;;;;;;;;;;5094493;28;19939;-64
2023/05/30 15:54:30;;;;;;;;;;;;;;;;;;5113287;28;19912;-63
2023/05/30 15:56:56;;;;;;;;;;;;;;;;;;5113009;28;19927;-63
2023/05/30 15:59:21;;;;;;;;;;;;;;;;;;5094968;28;20010;-64
2023/05/30 16:01:46;;;;;;;;;;;;;;;;;;5112878;28;20293;-61
2023/05/30 16:04:12;;;;;;;;;;;;;;;;;;5113358;28;19912;-64
2023/05/30 16:06:37;;;;;;;;;;;;;;;;;;5089822;28;19923;-62
2023/05/30 16:09:03;;;;;;;;;;;;;;;;;;5101092;28;19974;-62
2023/05/30 16:11:28;;;;;;;;;;;;;;;;;;5107316;28;19927;-62
2023/05/30 16:13:54;;;;;;;;;;;;;;;;;;5112922;28;19916;-61
2023/05/30 16:16:19;;;;;;;;;;;;;;;;;;5109949;28;20286;-62
2023/05/30 16:18:45;;;;;;;;;;;;;;;;;;5099218;28;19916;-62
2023/05/30 16:21:10;;;;;;;;;;;;;;;;;;5093034;28;19951;-63
2023/05/30 16:23:35;;;;;;;;;;;;;;;;;;5092074;28;19963;-62
2023/05/30 16:26:01;;;;;;;;;;;;;;;;;;5102244;28;19920;-62
2023/05/30 16:28:26;;;;;;;;;;;;;;;;;;5102646;28;19923;-63
2023/05/30 16:30:51;;;;;;;;;;;;;;;;;;5077677;28;19924;-61
2023/05/30 16:33:16;;;;;;;;;;;;;;;;;;5073424;28;19916;-61
2023/05/30 16:35:42;;;;;;;;;;;;;;;;;;5098244;28;19920;-61